createdAt,value
2018-11-20T00:28:10.747Z,3.77
2018-11-20T00:29:20.699Z,3.71
2018-11-20T00:30:30.139Z,3.73
2018-11-20T00:31:40.085Z,3.73
2018-11-20T00:32:50.038Z,3.71
2018-11-20T00:33:59.719Z,3.68
2018-11-20T00:35:09.412Z,3.71
2018-11-20T00:36:19.362Z,3.68
2018-11-20T00:37:28.802Z,3.7
2018-11-20T00:38:38.230Z,3.73
2018-11-20T00:39:47.929Z,3.7
2018-11-20T00:40:57.617Z,3.67
2018-11-20T00:42:07.056Z,3.67
2018-11-20T00:43:16.750Z,3.67
2018-11-20T00:44:26.456Z,3.67
2018-11-20T00:45:36.142Z,3.77
2018-11-20T00:46:46.120Z,3.66
2018-11-20T00:47:55.802Z,3.68
2018-11-20T00:49:05.755Z,3.71
2018-11-20T00:50:15.184Z,3.7
2018-11-20T00:51:24.626Z,3.66
2018-11-20T00:52:34.056Z,3.68
2018-11-20T00:53:43.244Z,3.7
2018-11-20T00:54:53.214Z,3.73
2018-11-20T00:56:02.638Z,3.63
2018-11-20T00:57:12.576Z,3.68
2018-11-20T00:58:21.752Z,3.7
2018-11-20T00:59:31.198Z,3.7
2018-11-20T01:00:41.638Z,3.67
2018-11-20T01:01:51.336Z,3.71
2018-11-20T01:03:01.041Z,3.66
2018-11-20T01:04:10.463Z,3.67
2018-11-20T01:05:20.418Z,3.64
2018-11-20T01:06:30.322Z,3.67
2018-11-20T01:07:40.274Z,3.7
2018-11-20T01:08:49.941Z,3.61
2018-11-20T01:09:59.671Z,3.59
2018-11-20T01:11:09.627Z,3.55
2018-11-20T01:12:19.328Z,3.64
2018-11-20T01:13:28.808Z,3.63
2018-11-20T01:14:38.491Z,3.68
2018-11-20T01:15:48.188Z,3.56
2018-11-20T01:16:57.869Z,3.66
2018-11-20T01:18:07.289Z,3.68
2018-11-20T01:19:16.965Z,3.66
2018-11-20T01:20:26.912Z,3.63
2018-11-20T01:21:36.351Z,3.64
2018-11-20T01:22:45.789Z,3.64
2018-11-20T01:23:55.734Z,3.61
2018-11-20T01:25:05.699Z,3.58
2018-11-20T01:26:15.644Z,3.56
2018-11-20T01:27:25.087Z,3.56
2018-11-20T01:28:35.025Z,3.48
2018-11-20T01:29:44.467Z,3.61
2018-11-20T01:30:54.160Z,3.63
2018-11-20T01:32:03.851Z,3.56
2018-11-20T01:33:13.296Z,3.61
2018-11-20T01:34:23.259Z,3.52
2018-11-20T01:35:32.948Z,3.55
2018-11-20T01:36:42.712Z,3.55
2018-11-20T01:37:52.658Z,3.58
2018-11-20T01:39:02.605Z,3.55
2018-11-20T01:40:12.544Z,3.49
2018-11-20T01:41:21.792Z,3.45
2018-11-20T01:42:31.639Z,3.52
2018-11-20T01:43:41.098Z,3.48
2018-11-20T01:44:51.041Z,3.49
2018-11-20T01:45:59.952Z,3.53
2018-11-20T01:47:09.653Z,3.48
2018-11-20T01:48:19.339Z,3.49
2018-11-20T01:49:28.518Z,3.45
2018-11-20T01:50:38.471Z,3.37
2018-11-20T01:51:47.904Z,3.43
2018-11-20T01:52:57.863Z,3.41
2018-11-20T01:54:07.290Z,3.46
2018-11-20T01:55:16.727Z,3.46
2018-11-20T01:56:26.417Z,3.43
2018-11-20T01:57:36.109Z,3.43
2018-11-20T01:58:45.859Z,3.34
2018-11-20T01:59:55.554Z,3.34
2018-11-20T02:01:04.995Z,3.37
2018-11-20T02:02:14.940Z,3.33
2018-11-20T02:03:24.368Z,3.33
2018-11-20T02:04:34.334Z,3.31
2018-11-20T02:05:44.266Z,3.36
2018-11-20T02:06:53.703Z,3.33
2018-11-20T02:08:03.642Z,3.33
2018-11-20T02:09:13.356Z,3.33
2018-11-20T02:10:23.037Z,3.34
2018-11-20T02:11:32.733Z,3.37
2018-11-20T02:12:42.165Z,3.29
2018-11-20T02:13:52.118Z,3.24
2018-11-20T02:15:01.822Z,3.36
2018-11-20T02:16:11.780Z,3.3
2018-11-20T02:17:21.205Z,3.21
2018-11-20T02:18:30.946Z,3.24
2018-11-20T02:19:40.643Z,3.29
2018-11-20T02:20:50.342Z,3.24
2018-11-20T02:21:59.771Z,3.21
2018-11-20T02:23:09.464Z,3.19
2018-11-20T02:24:19.156Z,3.21
2018-11-20T02:25:28.847Z,3.33
2018-11-20T02:26:38.557Z,3.27
2018-11-20T02:27:48.520Z,3.3
2018-11-20T02:28:58.208Z,3.24
2018-11-20T02:30:08.189Z,3.21
2018-11-20T02:31:18.134Z,3.27
2018-11-20T02:32:27.830Z,3.31
2018-11-20T02:33:37.777Z,3.31
2018-11-20T02:34:47.217Z,3.29
2018-11-20T02:35:56.904Z,3.26
2018-11-20T02:37:06.364Z,3.3
2018-11-20T02:38:16.062Z,3.18
2018-11-20T02:39:25.748Z,3.18
2018-11-20T02:40:35.713Z,3.29
2018-11-20T02:41:45.150Z,3.29
2018-11-20T02:42:55.110Z,3.36
2018-11-20T02:44:04.279Z,3.18
2018-11-20T02:45:14.013Z,3.26
2018-11-20T02:46:23.928Z,3.24
2018-11-20T02:47:33.617Z,3.16
2018-11-20T02:48:43.311Z,3.15
2018-11-20T02:49:52.993Z,3.26
2018-11-20T02:51:02.430Z,3.12
2018-11-20T02:52:12.107Z,3.3
2018-11-20T02:53:22.188Z,3.18
2018-11-20T02:54:32.144Z,3.21
2018-11-20T02:55:41.311Z,3.24
2018-11-20T02:56:51.258Z,3.18
2018-11-20T02:58:01.221Z,3.19
2018-11-20T02:59:10.925Z,3.16
2018-11-20T03:00:20.616Z,3.24
2018-11-20T03:01:29.534Z,3.24
2018-11-20T03:02:39.221Z,3.05
2018-11-20T03:03:48.819Z,3.12
2018-11-20T03:04:59.107Z,3.11
2018-11-20T03:06:08.807Z,3.16
2018-11-20T03:07:18.635Z,3.11
2018-11-20T03:08:28.594Z,3.18
2018-11-20T03:09:37.520Z,3.16
2018-11-20T03:10:46.959Z,3.06
2018-11-20T03:11:56.906Z,3.11
2018-11-20T03:13:06.589Z,3.13
2018-11-20T03:14:16.277Z,3.12
2018-11-20T03:15:25.973Z,3.15
2018-11-20T03:16:35.667Z,3.09
2018-11-20T03:17:44.855Z,3.13
2018-11-20T03:18:54.021Z,3.06
2018-11-20T03:20:03.721Z,3.11
2018-11-20T03:21:13.668Z,3.09
2018-11-20T03:22:23.623Z,3.16
2018-11-20T03:23:32.801Z,3.12
2018-11-20T03:24:42.740Z,3.11
2018-11-20T03:25:52.181Z,3.12
2018-11-20T03:27:02.278Z,3.12
2018-11-20T03:28:12.465Z,3.09
2018-11-20T03:29:22.419Z,3.05
2018-11-20T03:30:32.111Z,3.12
2018-11-20T03:31:42.069Z,3.11
2018-11-20T03:32:52.038Z,2.98
2018-11-20T03:34:01.993Z,3.08
2018-11-20T03:35:11.679Z,3.05
2018-11-20T03:36:21.768Z,3.13
2018-11-20T03:37:31.262Z,3.06
2018-11-20T03:38:41.214Z,3.08
2018-11-20T03:39:50.641Z,3.08
2018-11-20T03:41:00.592Z,3.08
2018-11-20T03:42:10.533Z,3.06
2018-11-20T03:43:20.232Z,3.01
2018-11-20T03:44:29.413Z,3.06
2018-11-20T03:45:39.350Z,3.08
2018-11-20T03:46:49.371Z,3.05
2018-11-20T03:47:59.048Z,3.05
2018-11-20T03:49:09.222Z,3.05
2018-11-20T03:50:18.662Z,3.06
2018-11-20T03:51:28.363Z,3.08
2018-11-20T03:52:38.293Z,3.05
2018-11-20T03:53:48.279Z,3.08
2018-11-20T03:54:58.226Z,3.11
2018-11-20T03:56:07.914Z,3.11
2018-11-20T03:57:17.883Z,3.06
2018-11-20T03:58:27.573Z,3.06
2018-11-20T03:59:37.001Z,3.05
2018-11-20T04:00:46.959Z,3.03
2018-11-20T04:01:56.914Z,3.06
2018-11-20T04:03:06.092Z,3.08
2018-11-20T04:04:16.029Z,3.03
2018-11-20T04:05:25.715Z,3.05
2018-11-20T04:06:35.670Z,3.12
2018-11-20T04:07:45.624Z,3.09
2018-11-20T04:08:55.580Z,3.11
2018-11-20T04:10:05.289Z,3.12
2018-11-20T04:11:15.226Z,3.08
2018-11-20T04:12:24.922Z,3.09
2018-11-20T04:13:34.882Z,3.01
2018-11-20T04:14:44.566Z,3.06
2018-11-20T04:15:54.501Z,3.09
2018-11-20T04:17:04.442Z,3.09
2018-11-20T04:18:13.622Z,3.13
2018-11-20T04:19:23.567Z,3.13
2018-11-20T04:20:33.254Z,3.09
2018-11-20T04:21:43.199Z,3.13
2018-11-20T04:22:53.157Z,3.13
2018-11-20T04:24:02.338Z,3.08
2018-11-20T04:25:12.026Z,3.12
2018-11-20T04:26:21.724Z,3.15
2018-11-20T04:27:31.151Z,3.09
2018-11-20T04:28:41.110Z,3.11
2018-11-20T04:29:50.790Z,3.05
2018-11-20T04:31:00.482Z,3.05
2018-11-20T04:32:10.168Z,3.06
2018-11-20T04:33:19.859Z,3.05
2018-11-20T04:34:29.542Z,3.08
2018-11-20T04:35:39.235Z,3.09
2018-11-20T04:36:49.186Z,3.11
2018-11-20T04:37:59.135Z,3.12
2018-11-20T04:39:08.816Z,3.12
2018-11-20T04:40:18.765Z,3.12
2018-11-20T04:41:28.391Z,3.06
2018-11-20T04:42:38.076Z,3.03
2018-11-20T04:43:48.022Z,3.06
2018-11-20T04:44:57.187Z,3.06
2018-11-20T04:46:06.889Z,3.08
2018-11-20T04:47:16.845Z,3.08
2018-11-20T04:48:26.749Z,3.03
2018-11-20T04:49:36.461Z,3.15
2018-11-20T04:50:46.490Z,3.06
2018-11-20T04:51:55.413Z,3.09
2018-11-20T04:53:05.368Z,3.05
2018-11-20T04:54:15.066Z,3.06
2018-11-20T04:55:24.751Z,3.01
2018-11-20T04:56:34.699Z,3.08
2018-11-20T04:57:44.667Z,3.03
2018-11-20T04:58:54.947Z,3.06
2018-11-20T05:00:04.895Z,3.09
2018-11-20T05:01:14.864Z,3.09
2018-11-20T05:02:24.820Z,3.09
2018-11-20T05:03:34.521Z,3.08
2018-11-20T05:04:43.957Z,3.08
2018-11-20T05:05:53.638Z,3.06
2018-11-20T05:07:03.580Z,3.06
2018-11-20T05:08:13.548Z,3.06
2018-11-20T05:09:23.237Z,2.98
2018-11-20T05:10:32.671Z,3.09
2018-11-20T05:11:42.629Z,3.06
2018-11-20T05:12:51.801Z,3.03
2018-11-20T05:14:01.500Z,3.06
2018-11-20T05:15:11.211Z,3.13
2018-11-20T05:16:20.912Z,3.06
2018-11-20T05:17:30.348Z,3.12
2018-11-20T05:18:40.040Z,3.12
2018-11-20T05:19:49.486Z,3.06
2018-11-20T05:20:59.169Z,3.11
2018-11-20T05:22:08.861Z,3.08
2018-11-20T05:23:18.581Z,3.12
2018-11-20T05:24:28.015Z,3.12
2018-11-20T05:25:37.695Z,3.08
2018-11-20T05:26:47.398Z,3.13
2018-11-20T05:27:56.912Z,3.09
2018-11-20T05:29:06.487Z,3.12
2018-11-20T05:30:16.192Z,3.11
2018-11-20T05:31:25.911Z,3.05
2018-11-20T05:32:35.849Z,3.12
2018-11-20T05:33:45.013Z,3.08
2018-11-20T05:34:54.993Z,3.09
2018-11-20T05:36:04.950Z,3.13
2018-11-20T05:37:14.910Z,3.15
2018-11-20T05:38:24.364Z,3.18
2018-11-20T05:39:33.769Z,3.15
2018-11-20T05:40:43.719Z,3.12
2018-11-20T05:41:53.149Z,3.11
2018-11-20T05:43:02.603Z,3.11
2018-11-20T05:44:12.295Z,3.15
2018-11-20T05:45:21.987Z,3.22
2018-11-20T05:46:31.161Z,3.11
2018-11-20T05:47:41.222Z,3.16
2018-11-20T05:48:50.663Z,3.24
2018-11-20T05:50:00.601Z,3.19
2018-11-20T05:51:10.036Z,3.22
2018-11-20T05:52:19.740Z,3.16
2018-11-20T05:53:29.185Z,3.21
2018-11-20T05:54:38.894Z,3.24
2018-11-20T05:55:48.327Z,3.05
2018-11-20T05:56:58.276Z,3.06
2018-11-20T05:58:07.966Z,3.15
2018-11-20T05:59:18.376Z,3.06
2018-11-20T06:00:27.819Z,3.13
2018-11-20T06:01:37.769Z,3.09
2018-11-20T06:02:46.936Z,3.11
2018-11-20T06:03:56.886Z,3.13
2018-11-20T06:05:06.337Z,3.08
2018-11-20T06:06:16.187Z,3.09
2018-11-20T06:07:26.144Z,3.15
2018-11-20T06:08:36.117Z,3.11
2018-11-20T06:09:45.808Z,3.12
2018-11-20T06:10:55.527Z,3.12
2018-11-20T06:12:05.483Z,3.15
2018-11-20T06:13:15.177Z,2.98
2018-11-20T06:14:24.620Z,3.11
2018-11-20T06:15:34.325Z,3.13
2018-11-20T06:16:43.767Z,3.15
2018-11-20T06:17:53.725Z,3.16
2018-11-20T06:19:04.057Z,3.09
2018-11-20T06:20:14.382Z,3.08
2018-11-20T06:21:23.809Z,3.08
2018-11-20T06:22:33.503Z,3.08
2018-11-20T06:23:43.450Z,3.09
2018-11-20T06:24:53.409Z,3.08
2018-11-20T06:26:02.871Z,3.09
2018-11-20T06:27:12.839Z,3.09
2018-11-20T06:28:22.779Z,3.11
2018-11-20T06:29:32.287Z,3.18
2018-11-20T06:30:41.732Z,3.06
2018-11-20T06:31:51.160Z,3.08
2018-11-20T06:33:00.844Z,3.12
2018-11-20T06:34:10.812Z,3.12
2018-11-20T06:35:19.993Z,3.12
2018-11-20T06:36:29.942Z,3.05
2018-11-20T06:37:39.886Z,3.13
2018-11-20T06:38:49.613Z,3.16
2018-11-20T06:39:59.316Z,3.06
2018-11-20T06:41:09.373Z,3.15
2018-11-20T06:42:19.210Z,3.15
2018-11-20T06:43:28.923Z,3.09
2018-11-20T06:44:38.644Z,3.11
2018-11-20T06:45:48.350Z,3.09
2018-11-20T06:46:58.084Z,3.12
2018-11-20T06:48:07.673Z,3.08
2018-11-20T06:49:17.623Z,3.12
2018-11-20T06:50:27.064Z,3.12
2018-11-20T06:51:36.758Z,3.09
2018-11-20T06:52:46.687Z,3.11
2018-11-20T06:53:56.626Z,3.18
2018-11-20T06:55:06.060Z,3.18
2018-11-20T06:56:16.018Z,3.09
2018-11-20T06:57:26.305Z,3.16
2018-11-20T06:58:36.513Z,3.13
2018-11-20T06:59:46.473Z,3.15
2018-11-20T07:00:56.423Z,3.11
2018-11-20T07:02:06.396Z,3.12
2018-11-20T07:03:15.570Z,3.06
2018-11-20T07:04:25.281Z,3.11
2018-11-20T07:05:35.248Z,3.08
2018-11-20T07:06:44.974Z,3.06
2018-11-20T07:07:55.325Z,3.11
2018-11-20T07:09:06.056Z,3.08
2018-11-20T07:10:15.781Z,3.11
2018-11-20T07:11:25.523Z,3.12
2018-11-20T07:12:35.257Z,3.21
2018-11-20T07:13:44.696Z,3.09
2018-11-20T07:14:54.404Z,3.11
2018-11-20T07:16:05.236Z,3.13
2018-11-20T07:17:16.102Z,3.15
2018-11-20T07:18:25.567Z,3.12
2018-11-20T07:19:34.754Z,3.01
2018-11-20T07:20:44.200Z,3.12
2018-11-20T07:21:54.164Z,3.08
2018-11-20T07:23:03.619Z,3.12
2018-11-20T07:24:13.380Z,3.08
2018-11-20T07:25:23.174Z,3.09
2018-11-20T07:26:32.381Z,3.03
2018-11-20T07:27:42.068Z,3.11
2018-11-20T07:28:52.044Z,3.13
2018-11-20T07:30:02.207Z,3.11
2018-11-20T07:31:12.169Z,3.13
2018-11-20T07:32:22.476Z,3.21
2018-11-20T07:33:32.183Z,3.11
2018-11-20T07:34:42.016Z,3.13
2018-11-20T07:35:51.871Z,3.09
2018-11-20T07:37:02.607Z,3.06
2018-11-20T07:38:13.270Z,3.08
2018-11-20T07:39:23.022Z,3.12
2018-11-20T07:40:33.019Z,3.11
2018-11-20T07:41:42.470Z,3.08
2018-11-20T07:42:52.213Z,3.13
2018-11-20T07:44:02.547Z,3.12
2018-11-20T07:45:12.434Z,3.13
2018-11-20T07:46:22.216Z,3.12
2018-11-20T07:47:31.918Z,3.11
2018-11-20T07:48:41.613Z,3.01
2018-11-20T07:49:51.599Z,3.11
2018-11-20T07:51:01.567Z,3.09
2018-11-20T07:52:11.527Z,3.09
2018-11-20T07:53:21.580Z,3.06
2018-11-20T07:54:31.564Z,3.18
2018-11-20T07:55:41.780Z,3.24
2018-11-20T07:56:50.964Z,3.16
2018-11-20T07:58:00.964Z,3.21
2018-11-20T07:59:10.668Z,3.13
2018-11-20T08:00:19.864Z,3.21
2018-11-20T08:01:29.839Z,3.08
2018-11-20T08:02:39.568Z,3.22
2018-11-20T08:03:49.288Z,3.09
2018-11-20T08:04:58.977Z,3.21
2018-11-20T08:06:08.680Z,3.24
2018-11-20T08:07:18.660Z,3.06
2018-11-20T08:08:28.305Z,3.13
2018-11-20T08:09:38.751Z,3.18
2018-11-20T08:10:47.913Z,3.16
2018-11-20T08:11:57.911Z,3.06
2018-11-20T08:13:07.415Z,3.12
2018-11-20T08:14:16.857Z,3.09
2018-11-20T08:15:26.670Z,3.06
2018-11-20T08:16:35.830Z,3.06
2018-11-20T08:17:45.545Z,3.09
2018-11-20T08:18:55.236Z,3.12
2018-11-20T08:20:04.945Z,3.06
2018-11-20T08:21:14.647Z,3.16
2018-11-20T08:22:24.638Z,3.18
2018-11-20T08:23:34.633Z,3.19
2018-11-20T08:24:44.130Z,3.22
2018-11-20T08:25:54.526Z,3.18
2018-11-20T08:27:04.341Z,3.21
2018-11-20T08:28:14.184Z,3.21
2018-11-20T08:29:23.611Z,3.18
2018-11-20T08:30:33.113Z,3.21
2018-11-20T08:31:43.110Z,3.18
2018-11-20T08:32:53.074Z,3.24
2018-11-20T08:34:02.839Z,3.22
2018-11-20T08:35:13.285Z,3.22
2018-11-20T08:36:23.561Z,3.13
2018-11-20T08:37:33.279Z,3.18
2018-11-20T08:38:42.996Z,3.27
2018-11-20T08:39:52.691Z,3.36
2018-11-20T08:41:02.152Z,3.24
2018-11-20T08:42:12.362Z,3.33
2018-11-20T08:43:22.358Z,3.33
2018-11-20T08:44:32.346Z,3.3
2018-11-20T08:45:42.056Z,3.36
2018-11-20T08:46:51.758Z,3.3
2018-11-20T08:48:01.695Z,3.3
2018-11-20T08:49:11.488Z,3.31
2018-11-20T08:50:21.222Z,3.19
2018-11-20T08:51:31.242Z,3.15
2018-11-20T08:52:40.955Z,3.16
2018-11-20T08:53:51.334Z,3.19
2018-11-20T08:55:01.635Z,3.11
2018-11-20T08:56:10.291Z,3.19
2018-11-20T08:57:20.280Z,3.24
2018-11-20T08:58:30.236Z,3.13
2018-11-20T08:59:39.679Z,3.22
2018-11-20T09:00:48.872Z,3.21
2018-11-20T09:01:58.561Z,3.24
2018-11-20T09:03:08.490Z,3.22
2018-11-20T09:04:18.694Z,3.21
2018-11-20T09:05:27.882Z,3.21
2018-11-20T09:06:37.598Z,3.24
2018-11-20T09:07:47.024Z,3.29
2018-11-20T09:08:56.719Z,3.3
2018-11-20T09:10:06.675Z,3.22
2018-11-20T09:11:16.928Z,3.27
2018-11-20T09:12:26.629Z,3.18
2018-11-20T09:13:36.568Z,3.29
2018-11-20T09:14:46.045Z,3.27
2018-11-20T09:15:55.767Z,3.31
2018-11-20T09:17:05.481Z,3.19
2018-11-20T09:18:15.444Z,3.21
2018-11-20T09:19:25.440Z,3.31
2018-11-20T09:20:35.022Z,3.31
2018-11-20T09:21:44.990Z,3.33
2018-11-20T09:22:54.194Z,3.34
2018-11-20T09:24:03.646Z,3.34
2018-11-20T09:25:13.342Z,3.31
2018-11-20T09:26:23.312Z,3.33
2018-11-20T09:27:33.270Z,3.33
2018-11-20T09:28:42.970Z,3.29
2018-11-20T09:29:52.965Z,3.29
2018-11-20T09:31:02.423Z,3.3
2018-11-20T09:32:12.249Z,3.33
2018-11-20T09:33:22.242Z,3.34
2018-11-20T09:34:32.343Z,3.31
2018-11-20T09:35:42.984Z,3.36
2018-11-20T09:36:53.430Z,3.26
2018-11-20T09:38:03.366Z,3.27
2018-11-20T09:39:13.323Z,3.24
2018-11-20T09:40:22.511Z,3.19
2018-11-20T09:41:32.342Z,3.15
2018-11-20T09:42:41.802Z,3.18
2018-11-20T09:43:51.251Z,3.19
2018-11-20T09:45:00.947Z,3.21
2018-11-20T09:46:10.412Z,3.12
2018-11-20T09:47:20.108Z,3.3
2018-11-20T09:48:29.824Z,3.26
2018-11-20T09:49:39.563Z,3.13
2018-11-20T09:50:49.548Z,3.33
2018-11-20T09:51:59.566Z,3.26
2018-11-20T09:53:09.268Z,3.31
2018-11-20T09:54:19.506Z,3.18
2018-11-20T09:55:29.598Z,3.3
2018-11-20T09:56:39.534Z,3.21
2018-11-20T09:57:49.231Z,3.33
2018-11-20T09:58:58.942Z,3.31
2018-11-20T10:00:08.456Z,3.29
2018-11-20T10:01:18.212Z,3.29
2018-11-20T10:02:28.183Z,3.24
2018-11-20T10:03:37.777Z,3.31
2018-11-20T10:04:47.081Z,3.41
2018-11-20T10:05:57.070Z,3.21
2018-11-20T10:07:07.001Z,3.21
2018-11-20T10:08:17.353Z,3.27
2018-11-20T10:09:27.321Z,3.31
2018-11-20T10:10:36.758Z,3.31
2018-11-20T10:11:46.740Z,3.3
2018-11-20T10:12:56.445Z,3.31
2018-11-20T10:14:06.026Z,3.27
2018-11-20T10:15:16.540Z,3.4
2018-11-20T10:16:26.865Z,3.31
2018-11-20T10:17:36.315Z,3.34
2018-11-20T10:18:45.767Z,3.31
2018-11-20T10:19:55.725Z,3.29
2018-11-20T10:21:05.176Z,3.33
2018-11-20T10:22:15.299Z,3.4
2018-11-20T10:23:25.371Z,3.34
2018-11-20T10:24:35.238Z,3.34
2018-11-20T10:25:45.674Z,3.33
2018-11-20T10:26:56.085Z,3.4
2018-11-20T10:28:05.944Z,3.3
2018-11-20T10:29:15.662Z,3.41
2018-11-20T10:30:25.096Z,3.33
2018-11-20T10:31:34.799Z,3.3
2018-11-20T10:32:44.262Z,3.36
2018-11-20T10:33:53.473Z,3.31
2018-11-20T10:35:02.925Z,3.33
2018-11-20T10:36:12.890Z,3.46
2018-11-20T10:37:22.861Z,3.48
2018-11-20T10:38:32.861Z,3.48
2018-11-20T10:39:42.578Z,3.49
2018-11-20T10:40:52.001Z,3.37
2018-11-20T10:42:01.964Z,3.43
2018-11-20T10:43:11.933Z,3.45
2018-11-20T10:44:21.620Z,3.46
2018-11-20T10:45:31.808Z,3.43
2018-11-20T10:46:42.125Z,3.46
2018-11-20T10:47:52.168Z,3.55
2018-11-20T10:49:01.622Z,3.41
2018-11-20T10:50:11.611Z,3.43
2018-11-20T10:51:21.590Z,3.49
2018-11-20T10:52:31.391Z,3.48
2018-11-20T10:53:41.293Z,3.45
2018-11-20T10:54:51.269Z,3.46
2018-11-20T10:56:00.980Z,3.52
2018-11-20T10:57:10.943Z,3.5
2018-11-20T10:58:20.387Z,3.5
2018-11-20T10:59:30.157Z,3.49
2018-11-20T11:00:40.366Z,3.52
2018-11-20T11:01:50.067Z,3.53
2018-11-20T11:02:59.761Z,3.46
2018-11-20T11:04:09.488Z,3.46
2018-11-20T11:05:18.971Z,3.45
2018-11-20T11:06:29.355Z,3.52
2018-11-20T11:07:39.473Z,3.55
2018-11-20T11:08:49.561Z,3.46
2018-11-20T11:09:59.007Z,3.52
2018-11-20T11:11:08.453Z,3.53
2018-11-20T11:12:18.326Z,3.48
2018-11-20T11:13:28.302Z,3.5
2018-11-20T11:14:37.922Z,3.5
2018-11-20T11:15:47.801Z,3.46
2018-11-20T11:16:57.778Z,3.52
2018-11-20T11:18:07.499Z,3.5
2018-11-20T11:19:17.297Z,3.46
2018-11-20T11:20:27.732Z,3.46
2018-11-20T11:21:38.034Z,3.52
2018-11-20T11:22:47.761Z,3.49
2018-11-20T11:23:57.219Z,3.52
2018-11-20T11:25:06.921Z,3.5
2018-11-20T11:26:16.605Z,3.48
2018-11-20T11:27:26.322Z,3.5
2018-11-20T11:28:35.849Z,3.52
2018-11-20T11:29:45.807Z,3.48
2018-11-20T11:30:55.244Z,3.49
2018-11-20T11:32:04.689Z,3.53
2018-11-20T11:33:14.151Z,3.5
2018-11-20T11:34:29.340Z,3.49
2018-11-20T11:35:39.511Z,3.48
2018-11-20T11:36:49.499Z,3.55
2018-11-20T11:37:59.204Z,3.45
2018-11-20T11:39:08.994Z,3.48
2018-11-20T11:40:18.455Z,3.49
2018-11-20T11:41:28.425Z,3.5
2018-11-20T11:42:38.403Z,3.45
2018-11-20T11:43:48.436Z,3.41
2018-11-20T11:44:58.135Z,3.3
2018-11-20T11:46:08.085Z,3.41
2018-11-20T11:47:17.796Z,3.41
2018-11-20T11:48:27.489Z,3.43
2018-11-20T11:49:36.951Z,3.36
2018-11-20T11:50:46.661Z,3.33
2018-11-20T11:51:56.336Z,3.34
2018-11-20T11:53:05.290Z,3.36
2018-11-20T11:54:14.475Z,3.33
2018-11-20T11:55:24.449Z,3.33
2018-11-20T11:56:34.475Z,3.34
2018-11-20T11:57:44.495Z,3.45
2018-11-20T11:58:54.227Z,3.33
2018-11-20T12:00:04.396Z,3.34
2018-11-20T12:01:14.097Z,3.29
2018-11-20T12:03:32.303Z,3.33
2018-11-20T12:04:42.294Z,3.24
2018-11-20T12:05:55.865Z,3.33
2018-11-20T12:07:05.710Z,3.29
2018-11-20T12:08:15.163Z,3.36
2018-11-20T12:09:25.119Z,3.36
2018-11-20T12:10:38.878Z,3.34
2018-11-20T12:11:48.573Z,3.31
2018-11-20T12:12:58.024Z,3.34
2018-11-20T12:14:07.749Z,3.27
2018-11-20T12:15:17.189Z,3.26
2018-11-20T12:16:26.877Z,3.22
2018-11-20T12:17:36.057Z,3.36
2018-11-20T12:18:45.761Z,3.31
2018-11-20T12:19:55.743Z,3.34
2018-11-20T12:21:05.457Z,3.36
2018-11-20T12:22:15.191Z,3.43
2018-11-20T12:23:24.911Z,3.48
2018-11-20T12:24:34.365Z,3.55
2018-11-20T12:25:44.372Z,3.45
2018-11-20T12:26:54.081Z,3.29
2018-11-20T12:28:04.090Z,3.43
2018-11-20T12:29:14.821Z,3.43
2018-11-20T12:30:23.277Z,3.37
2018-11-20T12:31:35.669Z,3.33
2018-11-20T12:32:47.095Z,3.33
2018-11-20T12:34:00.141Z,3.31
2018-11-20T12:35:10.188Z,3.29
2018-11-20T12:36:20.875Z,3.24
2018-11-20T12:37:30.583Z,3.33
2018-11-20T12:38:41.358Z,3.31
2018-11-20T12:39:53.232Z,3.19
2018-11-20T12:41:03.683Z,3.16
2018-11-20T12:42:17.172Z,3.24
2018-11-20T12:43:27.723Z,3.19
2018-11-20T12:44:38.354Z,3.18
2018-11-20T12:45:46.878Z,3.22
2018-11-20T12:46:56.575Z,3.15
2018-11-20T12:48:08.464Z,3.21
2018-11-20T12:49:21.884Z,3.22
2018-11-20T12:50:32.901Z,3.09
2018-11-20T12:51:42.362Z,3.13
2018-11-20T12:52:55.834Z,3.19
2018-11-20T12:54:07.505Z,3.21
2018-11-20T12:55:19.749Z,3.26
2018-11-20T12:56:29.735Z,3.11
2018-11-20T12:57:41.563Z,3.21
2018-11-20T12:58:51.514Z,3.21
2018-11-20T13:00:01.533Z,3.24
2018-11-20T13:01:11.226Z,3.19
2018-11-20T13:02:22.390Z,3.13
2018-11-20T13:03:33.293Z,3.11
2018-11-20T13:04:42.753Z,3.15
2018-11-20T13:05:52.490Z,3.21
2018-11-20T13:07:05.158Z,3.24
2018-11-20T13:08:14.911Z,3.13
2018-11-20T13:09:27.064Z,3.24
2018-11-20T13:10:36.801Z,3.19
2018-11-20T13:11:46.040Z,3.22
2018-11-20T13:12:56.515Z,3.21
2018-11-20T13:14:08.217Z,3.21
2018-11-20T13:15:19.033Z,3.21
2018-11-20T13:16:28.501Z,3.11
2018-11-20T13:17:39.797Z,3.15
2018-11-20T13:18:56.435Z,3.21
2018-11-20T13:20:10.703Z,3.18
2018-11-20T13:21:20.691Z,3.19
2018-11-20T13:22:31.091Z,3.16
2018-11-20T13:23:45.124Z,3.11
2018-11-20T13:25:01.744Z,3.21
2018-11-20T13:26:11.769Z,3.15
2018-11-20T13:27:20.946Z,3.12
2018-11-20T13:28:30.126Z,3.21
2018-11-20T13:29:39.848Z,3.18
2018-11-20T13:30:49.837Z,3.16
2018-11-20T13:31:59.314Z,3.21
2018-11-20T13:33:08.769Z,3.19
2018-11-20T13:34:27.192Z,3.19
2018-11-20T13:35:36.758Z,3.06
2018-11-20T13:36:46.949Z,3.19
2018-11-20T13:37:56.925Z,3.08
2018-11-20T13:39:08.315Z,3.12
2018-11-20T13:40:19.504Z,3.12
2018-11-20T13:41:29.216Z,3.09
2018-11-20T13:42:38.960Z,3.19
2018-11-20T13:43:48.161Z,3.06
2018-11-20T13:44:59.782Z,3.11
2018-11-20T13:46:09.240Z,3.11
2018-11-20T13:47:19.083Z,3.11
2018-11-20T13:48:29.132Z,3.08
2018-11-20T13:49:38.833Z,3.05
2018-11-20T13:50:48.523Z,3.06
2018-11-20T13:51:57.437Z,3.06
2018-11-20T13:53:06.962Z,2.95
2018-11-20T13:54:17.211Z,2.94
2018-11-20T13:55:29.553Z,2.95
2018-11-20T13:56:41.540Z,3.01
2018-11-20T13:57:50.989Z,3.06
2018-11-20T13:59:00.742Z,3.03
2018-11-20T14:00:10.716Z,3.06
2018-11-20T14:01:20.205Z,2.95
2018-11-20T14:02:29.931Z,3.03
2018-11-20T14:03:45.384Z,2.91
2018-11-20T14:04:55.358Z,2.93
2018-11-20T14:06:04.808Z,2.93
2018-11-20T14:07:14.768Z,2.94
2018-11-20T14:08:24.459Z,2.98
2018-11-20T14:09:33.917Z,3
2018-11-20T14:10:43.623Z,2.94
2018-11-20T14:11:53.074Z,2.91
2018-11-20T14:13:02.772Z,2.93
2018-11-20T14:14:12.236Z,2.85
2018-11-20T14:15:22.226Z,2.83
2018-11-20T14:16:32.239Z,2.87
2018-11-20T14:17:42.218Z,2.83
2018-11-20T14:18:51.671Z,2.87
2018-11-20T14:20:01.641Z,2.85
2018-11-20T14:21:11.910Z,2.85
2018-11-20T14:22:21.353Z,2.85
2018-11-20T14:23:31.087Z,2.83
2018-11-20T14:24:40.265Z,2.8
2018-11-20T14:25:50.239Z,2.85
2018-11-20T14:26:59.435Z,2.77
2018-11-20T14:28:09.120Z,2.82
2018-11-20T14:29:21.724Z,2.82
2018-11-20T14:30:31.474Z,2.77
2018-11-20T14:31:41.552Z,2.75
2018-11-20T14:32:51.334Z,2.82
2018-11-20T14:34:01.051Z,2.77
2018-11-20T14:35:09.988Z,2.7
2018-11-20T14:36:19.420Z,2.73
2018-11-20T14:37:29.121Z,2.7
2018-11-20T14:38:38.838Z,2.7
2018-11-20T14:39:49.032Z,2.75
2018-11-20T14:41:04.328Z,2.76
2018-11-20T14:42:13.904Z,2.76
2018-11-20T14:43:23.868Z,2.77
2018-11-20T14:44:33.588Z,2.79
2018-11-20T14:45:43.308Z,2.77
2018-11-20T14:46:53.000Z,2.72
2018-11-20T14:48:03.167Z,2.76
2018-11-20T14:49:13.145Z,2.73
2018-11-20T14:50:22.363Z,2.77
2018-11-20T14:51:32.311Z,2.79
2018-11-20T14:52:42.286Z,2.69
2018-11-20T14:53:56.611Z,2.68
2018-11-20T14:55:06.512Z,2.69
2018-11-20T14:56:16.226Z,2.69
2018-11-20T14:57:25.659Z,2.69
2018-11-20T14:58:35.629Z,2.64
2018-11-20T14:59:45.341Z,2.7
2018-11-20T15:00:54.808Z,2.64
2018-11-20T15:02:04.516Z,2.72
2018-11-20T15:03:14.482Z,2.79
2018-11-20T15:04:24.183Z,2.79
2018-11-20T15:05:33.903Z,2.68
2018-11-20T15:06:43.592Z,2.73
2018-11-20T15:08:01.464Z,2.73
2018-11-20T15:09:11.428Z,2.76
2018-11-20T15:10:21.407Z,2.82
2018-11-20T15:11:30.862Z,2.75
2018-11-20T15:12:40.827Z,2.75
2018-11-20T15:13:50.266Z,2.72
2018-11-20T15:14:59.703Z,2.69
2018-11-20T15:16:09.418Z,2.73
2018-11-20T15:17:19.113Z,2.68
2018-11-20T15:18:29.052Z,2.64
2018-11-20T15:19:38.497Z,2.68
2018-11-20T15:20:48.435Z,2.7
2018-11-20T15:21:58.403Z,2.7
2018-11-20T15:23:08.187Z,2.72
2018-11-20T15:24:18.148Z,2.61
2018-11-20T15:25:27.826Z,2.68
2018-11-20T15:26:37.540Z,2.58
2018-11-20T15:27:47.486Z,2.61
2018-11-20T15:28:56.985Z,2.69
2018-11-20T15:30:06.698Z,2.54
2018-11-20T15:31:16.138Z,2.59
2018-11-20T15:32:26.096Z,2.61
2018-11-20T15:33:35.788Z,2.68
2018-11-20T15:34:45.502Z,2.7
2018-11-20T15:35:54.688Z,2.65
2018-11-20T15:37:04.133Z,2.72
2018-11-20T15:38:13.847Z,2.62
2018-11-20T15:39:23.800Z,2.64
2018-11-20T15:40:33.228Z,2.62
2018-11-20T15:41:42.650Z,2.59
2018-11-20T15:42:52.582Z,2.55
2018-11-20T15:44:02.018Z,2.65
2018-11-20T15:45:11.730Z,2.59
2018-11-20T15:46:21.444Z,2.65
2018-11-20T15:47:30.886Z,2.68
2018-11-20T15:48:40.846Z,2.7
2018-11-20T15:49:50.798Z,2.64
2018-11-20T15:51:00.260Z,2.72
2018-11-20T15:52:09.691Z,2.61
2018-11-20T15:53:18.877Z,2.69
2018-11-20T15:54:28.574Z,2.61
2018-11-20T15:55:38.031Z,2.7
2018-11-20T15:56:47.774Z,2.7
2018-11-20T15:57:57.718Z,2.65
2018-11-20T15:59:07.420Z,2.7
2018-11-20T16:00:17.104Z,2.62
2018-11-20T16:01:28.088Z,2.65